Time;durP1;ratioP1;P1;durP2;ratioP2;P2;SDS_P1;SDS_P2;PMS_P1;PMS_P2;Temp;Humidity;BMP_temperature;BMP_pressure;BME280_temperature;BME280_humidity;BME280_pressure;Samples;Min_cycle;Max_cycle;Signal;HPM_P1;HPM_P2
2023/08/25 00:02:31;;;;;;;7.55;5.10;;;26.20;75.60;;;;;;5089859;28;20047;-68
2023/08/25 00:05:37;;;;;;;8.93;5.43;;;26.20;75.60;;;;;;5090087;28;20039;-68
2023/08/25 00:08:41;;;;;;;6.85;5.25;;;26.20;75.60;;;;;;5093368;28;20119;-68
2023/08/25 00:11:45;;;;;;;6.78;4.95;;;26.20;75.40;;;;;;5093303;28;20069;-68
2023/08/25 00:14:49;;;;;;;8.43;5.35;;;26.30;75.50;;;;;;5093973;28;20059;-68
2023/08/25 00:17:56;;;;;;;9.68;4.82;;;26.30;75.50;;;;;;5093949;28;20225;-68
2023/08/25 00:21:00;;;;;;;6.68;5.30;;;26.30;75.70;;;;;;5073331;28;20043;-69
2023/08/25 00:24:03;;;;;;;9.43;6.35;;;26.20;76.10;;;;;;5072725;28;20035;-68
2023/08/25 00:27:07;;;;;;;8.30;5.50;;;26.10;76.30;;;;;;5072683;28;20510;-68
2023/08/25 00:30:13;;;;;;;7.80;5.38;;;26.10;76.50;;;;;;5061069;28;20042;-68
2023/08/25 00:33:17;;;;;;;8.88;6.00;;;26.10;76.90;;;;;;5060586;28;20059;-68
2023/08/25 00:36:21;;;;;;;14.35;6.10;;;26.10;76.60;;;;;;5073268;28;20039;-69
2023/08/25 00:39:25;;;;;;;7.75;6.20;;;26.10;77.00;;;;;;5073301;28;20055;-69
2023/08/25 00:42:29;;;;;;;7.22;5.25;;;26.00;77.70;;;;;;5072571;28;20528;-69
2023/08/25 00:45:39;;;;;;;7.20;5.55;;;26.00;78.00;;;;;;5060448;28;20044;-68
2023/08/25 00:48:43;;;;;;;9.13;5.40;;;25.90;78.20;;;;;;5072878;28;20052;-68
2023/08/25 00:51:48;;;;;;;7.82;6.05;;;25.90;78.60;;;;;;5072841;28;20120;-68
2023/08/25 00:54:54;;;;;;;12.02;5.85;;;25.90;78.50;;;;;;5060505;28;20039;-68
2023/08/25 00:57:59;;;;;;;7.25;4.80;;;25.80;78.10;;;;;;5060579;28;20498;-69
2023/08/25 01:01:05;;;;;;;6.72;4.15;;;25.70;78.70;;;;;;5060304;28;20112;-68
2023/08/25 01:04:09;;;;;;;12.95;5.20;;;25.70;77.60;;;;;;5060615;28;20044;-68
2023/08/25 01:07:13;;;;;;;10.52;4.93;;;25.70;77.40;;;;;;5060434;28;20036;-68
2023/08/25 01:10:25;;;;;;;6.63;5.07;;;25.70;78.20;;;;;;5072774;28;20064;-68
2023/08/25 01:13:50;;;;;;;9.00;5.20;;;25.70;78.30;;;;;;5060048;28;20043;-68
2023/08/25 01:17:27;;;;;;;6.82;5.35;;;25.60;78.60;;;;;;5060142;28;20047;-69
2023/08/25 01:20:32;;;;;;;6.57;5.10;;;25.50;79.30;;;;;;5059775;28;20498;-68
2023/08/25 01:23:44;;;;;;;9.70;5.05;;;25.40;79.60;;;;;;5071883;28;20494;-68
2023/08/25 01:26:50;;;;;;;8.52;5.35;;;25.40;79.70;;;;;;5072022;28;20078;-69
2023/08/25 01:29:55;;;;;;;10.73;5.70;;;25.40;79.90;;;;;;5071888;28;20040;-69
2023/08/25 01:32:59;;;;;;;8.38;4.93;;;25.40;80.30;;;;;;5070674;28;20392;-69
2023/08/25 01:36:33;;;;;;;8.02;5.45;;;25.30;80.20;;;;;;5059808;28;20055;-68
2023/08/25 01:39:40;;;;;;;8.80;5.50;;;25.30;80.80;;;;;;5072023;28;20039;-68
2023/08/25 01:42:46;;;;;;;7.72;5.20;;;25.30;80.40;;;;;;5059367;28;20043;-68
2023/08/25 01:45:52;;;;;;;7.45;5.32;;;25.40;80.30;;;;;;5071994;28;20043;-68
2023/08/25 01:48:59;;;;;;;7.40;4.80;;;25.40;79.80;;;;;;5059491;28;20203;-68
2023/08/25 01:52:04;;;;;;;6.03;4.70;;;25.30;80.10;;;;;;5071310;28;20054;-68
2023/08/25 01:55:09;;;;;;;10.55;5.65;;;25.20;80.90;;;;;;5071776;28;20048;-68
2023/08/25 01:58:14;;;;;;;9.85;5.50;;;25.00;81.70;;;;;;5071818;28;20047;-68
2023/08/25 02:01:18;;;;;;;8.32;5.60;;;24.90;82.70;;;;;;5059165;28;20055;-68
2023/08/25 02:04:23;;;;;;;10.18;6.43;;;24.80;83.70;;;;;;5059272;28;20047;-68
2023/08/25 02:07:27;;;;;;;10.80;6.40;;;24.60;84.30;;;;;;5071328;28;20491;-68
2023/08/25 02:10:31;;;;;;;10.50;6.32;;;24.70;83.90;;;;;;5071512;28;20383;-68
2023/08/25 02:13:35;;;;;;;10.23;6.63;;;24.80;83.50;;;;;;5070830;28;20502;-67
2023/08/25 02:16:40;;;;;;;9.07;5.60;;;24.80;83.60;;;;;;5071411;28;20059;-68
2023/08/25 02:19:43;;;;;;;9.55;6.30;;;24.80;83.70;;;;;;5070995;28;20388;-68
2023/08/25 02:22:49;;;;;;;7.22;5.70;;;24.80;83.80;;;;;;5058375;28;20491;-67
2023/08/25 02:25:54;;;;;;;9.15;6.47;;;24.80;83.90;;;;;;5070258;28;20044;-68
2023/08/25 02:28:58;;;;;;;10.13;6.22;;;24.80;84.30;;;;;;5058159;28;20055;-68
2023/08/25 02:32:04;;;;;;;9.55;6.22;;;24.80;84.70;;;;;;5057081;28;20043;-68
2023/08/25 02:35:08;;;;;;;8.48;6.72;;;24.80;85.30;;;;;;5070925;28;20040;-68
2023/08/25 02:38:12;;;;;;;8.02;6.60;;;24.80;85.70;;;;;;5058617;28;20263;-68
2023/08/25 02:41:15;;;;;;;12.07;5.90;;;24.70;86.20;;;;;;5046811;28;20047;-68
2023/08/25 02:44:20;;;;;;;11.55;6.97;;;24.50;86.70;;;;;;5058749;28;20063;-69
2023/08/25 02:47:26;;;;;;;8.98;6.32;;;24.40;87.50;;;;;;5058242;28;20043;-68
2023/08/25 02:50:30;;;;;;;7.95;6.45;;;24.30;87.40;;;;;;5070721;28;20044;-69
2023/08/25 02:53:34;;;;;;;8.77;6.78;;;24.40;88.00;;;;;;5070381;28;20379;-69
2023/08/25 02:56:38;;;;;;;8.65;6.40;;;24.30;88.40;;;;;;5070911;28;20048;-68
2023/08/25 02:59:43;;;;;;;13.63;7.45;;;24.30;88.80;;;;;;5058618;28;20483;-68
2023/08/25 03:02:48;;;;;;;11.00;6.82;;;24.30;89.50;;;;;;5057693;28;20047;-68
2023/08/25 03:05:52;;;;;;;8.30;6.78;;;24.30;89.90;;;;;;5058517;28;20387;-69
2023/08/25 03:08:57;;;;;;;9.60;6.93;;;24.30;90.00;;;;;;5058049;28;20419;-68
2023/08/25 03:12:00;;;;;;;9.38;7.00;;;24.10;90.30;;;;;;5069650;28;20500;-68
2023/08/25 03:15:06;;;;;;;8.70;6.85;;;24.10;90.80;;;;;;5058709;28;20039;-68
2023/08/25 03:18:09;;;;;;;10.98;6.97;;;23.90;91.20;;;;;;5070417;28;20044;-68
2023/08/25 03:21:13;;;;;;;12.55;7.30;;;23.90;91.70;;;;;;5058345;28;20399;-68
2023/08/25 03:24:17;;;;;;;10.63;7.10;;;23.90;91.90;;;;;;5057849;28;20044;-68
2023/08/25 03:27:21;;;;;;;11.75;7.25;;;23.80;92.20;;;;;;5057998;28;20379;-68
2023/08/25 03:30:26;;;;;;;12.77;7.93;;;23.70;93.20;;;;;;5069896;28;20048;-69
2023/08/25 03:33:29;;;;;;;7.53;6.30;;;23.60;93.70;;;;;;5070355;28;20047;-68
2023/08/25 03:36:34;;;;;;;11.25;6.85;;;23.50;93.60;;;;;;5058341;28;20048;-68
2023/08/25 03:39:38;;;;;;;10.93;6.78;;;23.50;93.20;;;;;;5069476;28;20043;-68
2023/08/25 03:42:43;;;;;;;9.52;7.13;;;23.50;93.30;;;;;;5059611;28;20044;-70
2023/08/25 03:45:47;;;;;;;12.68;7.05;;;23.60;93.30;;;;;;5061944;28;20060;-70
2023/08/25 03:48:51;;;;;;;13.35;7.18;;;23.60;93.70;;;;;;5061510;28;20036;-69
2023/08/25 03:51:56;;;;;;;8.23;6.22;;;23.60;93.70;;;;;;5074048;28;20035;-69
2023/08/25 03:55:00;;;;;;;9.30;6.50;;;23.70;93.90;;;;;;5073709;28;20043;-70
2023/08/25 03:58:04;;;;;;;11.57;6.78;;;23.60;93.90;;;;;;5061377;28;20043;-70
2023/08/25 04:01:08;;;;;;;8.70;6.57;;;23.50;94.20;;;;;;5074459;28;20379;-70
2023/08/25 04:04:12;;;;;;;9.93;6.78;;;23.50;94.50;;;;;;5073668;28;20044;-69
2023/08/25 04:07:16;;;;;;;11.43;7.28;;;23.40;94.80;;;;;;5061223;28;20382;-69
2023/08/25 04:10:21;;;;;;;10.20;6.50;;;23.30;95.20;;;;;;5072684;28;20048;-69
2023/08/25 04:13:25;;;;;;;8.57;7.30;;;23.30;95.50;;;;;;5060744;28;20376;-69
2023/08/25 04:16:30;;;;;;;12.25;7.20;;;23.20;95.70;;;;;;5061203;28;20044;-69
2023/08/25 04:19:35;;;;;;;10.80;7.03;;;23.10;95.80;;;;;;5072937;28;20048;-70
2023/08/25 04:22:40;;;;;;;11.77;7.68;;;23.10;96.20;;;;;;5060904;28;20043;-69
2023/08/25 04:25:44;;;;;;;12.23;7.80;;;23.00;96.60;;;;;;5061296;28;20048;-70
2023/08/25 04:28:49;;;;;;;8.52;6.65;;;23.00;97.00;;;;;;5073168;28;20534;-69
2023/08/25 04:31:54;;;;;;;16.63;7.28;;;22.90;97.20;;;;;;5060505;28;20039;-70
2023/08/25 04:35:08;;;;;;;11.35;7.57;;;22.80;97.40;;;;;;5060633;28;20035;-69
2023/08/25 04:38:14;;;;;;;12.93;7.43;;;22.80;98.10;;;;;;5072470;28;20047;-70
2023/08/25 04:41:19;;;;;;;16.70;8.77;;;22.80;98.70;;;;;;5072088;28;20051;-69
2023/08/25 04:44:23;;;;;;;13.30;7.43;;;22.80;99.10;;;;;;5060287;28;20047;-69
2023/08/25 04:47:30;;;;;;;13.43;7.95;;;22.90;99.40;;;;;;5060613;28;20043;-69
2023/08/25 04:50:34;;;;;;;21.08;7.93;;;23.00;99.50;;;;;;5073127;28;20040;-69
2023/08/25 04:53:38;;;;;;;23.20;8.23;;;23.00;99.70;;;;;;5058926;28;20039;-70
2023/08/25 04:56:43;;;;;;;22.08;8.38;;;23.00;99.70;;;;;;5060863;28;20048;-70
2023/08/25 04:59:47;;;;;;;8.75;6.60;;;23.10;99.40;;;;;;5072167;28;20047;-69
2023/08/25 05:02:52;;;;;;;14.20;7.97;;;23.20;99.30;;;;;;5060231;28;20043;-69
2023/08/25 05:05:57;;;;;;;14.57;7.00;;;23.40;99.00;;;;;;5060671;28;20077;-70
2023/08/25 05:09:03;;;;;;;16.90;7.70;;;23.50;99.10;;;;;;5059859;28;20043;-69
2023/08/25 05:12:08;;;;;;;10.70;7.30;;;23.50;99.60;;;;;;5060328;28;20048;-69
2023/08/25 05:15:12;;;;;;;11.35;7.43;;;23.50;99.90;;;;;;5060397;28;20058;-69
2023/08/25 05:18:16;;;;;;;40.70;10.10;;;23.70;99.90;;;;;;5059867;28;20065;-69
2023/08/25 05:21:20;;;;;;;65.78;12.48;;;23.90;99.30;;;;;;5071602;28;20039;-69
2023/08/25 05:24:26;;;;;;;37.90;8.75;;;24.30;99.20;;;;;;5071576;28;20400;-70
2023/08/25 05:27:31;;;;;;;31.83;8.88;;;25.90;97.40;;;;;;5060118;28;20048;-70
2023/08/25 05:30:35;;;;;;;9.77;7.22;;;27.40;94.40;;;;;;5059758;28;20498;-69
2023/08/25 05:33:40;;;;;;;18.25;7.93;;;28.70;92.30;;;;;;5059648;28;20047;-69
2023/08/25 05:37:05;;;;;;;13.52;8.02;;;29.80;90.70;;;;;;5063728;28;20040;-69
2023/08/25 05:40:10;;;;;;;18.67;7.70;;;30.10;89.50;;;;;;5059919;28;20039;-70
2023/08/25 05:43:17;;;;;;;15.57;7.70;;;30.70;88.60;;;;;;5059164;28;20341;-69
2023/08/25 05:46:21;;;;;;;18.00;7.32;;;31.20;86.50;;;;;;5059367;28;20055;-69
2023/08/25 05:49:25;;;;;;;14.90;6.82;;;31.50;85.80;;;;;;5071720;28;20052;-69
2023/08/25 05:52:29;;;;;;;20.52;7.18;;;31.80;85.30;;;;;;5071291;28;20411;-69
2023/08/25 05:55:35;;;;;;;11.95;7.22;;;32.70;83.50;;;;;;5070603;28;20044;-70
2023/08/25 05:58:41;;;;;;;16.45;7.43;;;33.30;81.30;;;;;;5071733;28;20058;-69
2023/08/25 06:01:45;;;;;;;10.23;6.85;;;33.50;80.50;;;;;;5071461;28;20381;-69
2023/08/25 06:04:49;;;;;;;12.30;6.82;;;34.20;79.30;;;;;;5071275;28;20063;-70
2023/08/25 06:07:53;;;;;;;10.98;6.47;;;34.40;78.60;;;;;;5071709;28;20044;-69
2023/08/25 06:10:58;;;;;;;8.75;6.05;;;34.60;77.30;;;;;;5071377;28;20044;-70
2023/08/25 06:14:02;;;;;;;11.45;6.53;;;35.00;76.80;;;;;;5071408;28;20044;-69
2023/08/25 06:17:06;;;;;;;9.82;6.50;;;35.20;75.20;;;;;;5071363;28;20036;-69
2023/08/25 06:20:12;;;;;;;12.23;6.80;;;35.10;75.00;;;;;;5071187;28;20425;-70
2023/08/25 06:23:15;;;;;;;14.30;6.22;;;35.50;74.50;;;;;;5071008;28;20039;-70
2023/08/25 06:26:20;;;;;;;9.63;6.05;;;35.70;73.80;;;;;;5071369;28;20056;-70
2023/08/25 06:29:25;;;;;;;10.70;6.07;;;36.10;72.50;;;;;;5081977;28;20058;-69
2023/08/25 06:32:29;;;;;;;11.20;6.07;;;36.70;71.70;;;;;;5082370;28;20035;-69
2023/08/25 06:35:33;;;;;;;13.60;6.30;;;36.90;70.90;;;;;;5091371;28;20039;-69
2023/08/25 06:38:37;;;;;;;8.77;6.30;;;36.30;71.40;;;;;;5084601;28;20081;-69
2023/08/25 06:41:41;;;;;;;12.27;6.40;;;34.60;73.40;;;;;;5072688;28;20410;-69
2023/08/25 06:44:46;;;;;;;9.10;5.90;;;34.00;74.20;;;;;;5060672;28;20542;-69
2023/08/25 06:47:50;;;;;;;10.25;6.10;;;33.50;75.60;;;;;;5086630;28;20047;-69
2023/08/25 06:50:54;;;;;;;9.55;6.07;;;32.80;76.30;;;;;;5091082;28;20040;-70
2023/08/25 06:54:01;;;;;;;10.38;6.50;;;32.70;76.50;;;;;;5091257;28;20047;-70
2023/08/25 06:57:05;;;;;;;12.50;6.20;;;31.90;76.10;;;;;;5083162;28;20059;-69
2023/08/25 07:00:09;;;;;;;9.80;6.35;;;32.90;76.80;;;;;;5088926;28;20102;-70
2023/08/25 07:03:13;;;;;;;6.53;5.57;;;33.00;76.00;;;;;;5087357;28;20059;-70
2023/08/25 07:06:18;;;;;;;15.48;6.70;;;34.50;74.50;;;;;;5090041;28;20055;-70
2023/08/25 07:09:22;;;;;;;11.65;6.05;;;36.00;72.80;;;;;;5081914;28;20386;-70
2023/08/25 07:12:26;;;;;;;11.52;6.45;;;37.00;70.70;;;;;;5082364;28;20055;-70
2023/08/25 07:15:31;;;;;;;12.90;5.55;;;37.50;70.00;;;;;;5086004;28;20775;-70
2023/08/25 07:18:35;;;;;;;18.30;5.85;;;38.60;69.00;;;;;;5087986;28;20047;-69
2023/08/25 07:21:39;;;;;;;10.77;6.15;;;39.30;67.80;;;;;;5087584;28;20043;-70
2023/08/25 07:24:43;;;;;;;10.05;6.13;;;40.10;66.30;;;;;;5095029;28;20047;-70
2023/08/25 07:27:47;;;;;;;8.80;5.43;;;38.60;67.10;;;;;;5089860;28;20483;-69
2023/08/25 07:30:51;;;;;;;7.57;5.47;;;38.20;67.90;;;;;;5077824;28;20524;-70
2023/08/25 07:33:56;;;;;;;8.45;5.30;;;38.90;67.00;;;;;;5090158;28;20047;-70
2023/08/25 07:37:00;;;;;;;8.55;5.70;;;38.40;67.80;;;;;;5093292;28;20040;-70
2023/08/25 07:40:06;;;;;;;13.15;6.43;;;36.20;68.70;;;;;;5097535;28;20047;-70
2023/08/25 07:43:10;;;;;;;10.20;5.88;;;35.10;71.20;;;;;;5094097;28;20390;-69
2023/08/25 07:46:14;;;;;;;8.52;5.97;;;34.80;71.60;;;;;;5090415;28;20039;-70
2023/08/25 07:49:21;;;;;;;7.90;5.38;;;35.90;70.80;;;;;;5093736;28;20043;-69
2023/08/25 07:52:25;;;;;;;7.45;5.45;;;37.30;69.90;;;;;;5102617;28;20055;-69
2023/08/25 07:55:32;;;;;;;12.70;5.40;;;37.00;69.10;;;;;;5108475;28;20040;-70
2023/08/25 07:58:36;;;;;;;9.43;5.30;;;37.80;69.30;;;;;;5071649;28;20601;-70
2023/08/25 08:01:40;;;;;;;7.88;5.00;;;39.10;67.30;;;;;;5089600;28;20039;-70
2023/08/25 08:04:45;;;;;;;8.27;5.32;;;40.50;66.20;;;;;;5088964;28;20518;-70
2023/08/25 08:07:49;;;;;;;6.82;5.15;;;41.60;64.40;;;;;;5088295;28;20062;-70
2023/08/25 08:10:53;;;;;;;7.35;5.28;;;41.40;63.60;;;;;;5093832;28;20043;-70
2023/08/25 08:13:56;;;;;;;11.65;5.30;;;41.60;63.80;;;;;;5092873;28;20043;-70
2023/08/25 08:17:00;;;;;;;6.60;4.80;;;42.10;63.30;;;;;;5080938;28;20047;-70
2023/08/25 08:20:08;;;;;;;6.97;4.60;;;42.50;62.80;;;;;;5094055;28;20039;-71
2023/08/25 08:23:13;;;;;;;7.03;4.60;;;43.10;62.20;;;;;;5092213;28;20039;-70
2023/08/25 08:26:19;;;;;;;9.52;5.00;;;44.00;61.10;;;;;;5087005;28;20047;-70
2023/08/25 08:29:25;;;;;;;11.65;4.65;;;42.70;61.10;;;;;;5086955;28;20039;-70
2023/08/25 08:32:30;;;;;;;9.15;4.45;;;43.20;61.50;;;;;;5082794;28;20039;-70
2023/08/25 08:35:34;;;;;;;9.25;4.93;;;42.80;61.60;;;;;;5073054;28;20391;-70
2023/08/25 08:38:38;;;;;;;9.82;4.50;;;43.70;60.60;;;;;;5088300;28;20039;-70
2023/08/25 08:41:43;;;;;;;8.70;4.63;;;44.10;60.30;;;;;;5087030;28;20055;-71
2023/08/25 08:44:50;;;;;;;5.80;4.40;;;44.60;59.50;;;;;;5104738;28;20051;-70
2023/08/25 08:47:55;;;;;;;6.80;4.90;;;45.10;59.00;;;;;;5089063;28;20383;-70
2023/08/25 08:51:01;;;;;;;6.93;4.90;;;44.40;59.10;;;;;;5091935;28;20051;-70
2023/08/25 08:54:06;;;;;;;6.35;4.85;;;44.50;59.20;;;;;;5092532;28;20055;-68
2023/08/25 08:57:11;;;;;;;10.00;4.45;;;44.50;58.80;;;;;;5096916;28;20482;-70
2023/08/25 09:00:18;;;;;;;9.70;4.70;;;44.30;58.20;;;;;;5090120;28;20039;-70
2023/08/25 09:03:30;;;;;;;6.43;4.40;;;43.40;58.90;;;;;;5084928;28;20042;-70
2023/08/25 09:06:36;;;;;;;8.38;4.90;;;44.10;58.80;;;;;;5089959;28;20050;-70
2023/08/25 09:09:43;;;;;;;6.13;4.30;;;44.50;57.40;;;;;;5090998;28;20051;-69
2023/08/25 09:12:48;;;;;;;6.63;4.47;;;46.20;57.10;;;;;;5090802;28;20051;-70
2023/08/25 09:15:54;;;;;;;9.55;4.70;;;45.10;57.10;;;;;;5089958;28;20387;-69
2023/08/25 09:19:03;;;;;;;5.80;4.50;;;46.50;56.60;;;;;;5086308;28;20481;-70
2023/08/25 09:22:13;;;;;;;8.32;4.80;;;44.80;56.60;;;;;;5090366;28;20066;-69
2023/08/25 09:25:17;;;;;;;8.43;4.45;;;45.50;57.30;;;;;;5079447;28;20050;-69
2023/08/25 09:28:24;;;;;;;6.57;4.00;;;45.00;57.40;;;;;;5093412;28;20031;-69
2023/08/25 09:31:31;;;;;;;8.88;4.57;;;47.10;56.60;;;;;;5090095;28;20030;-70
2023/08/25 09:34:36;;;;;;;5.78;3.95;;;47.20;56.50;;;;;;5098227;28;20043;-71
2023/08/25 09:37:41;;;;;;;5.22;3.95;;;49.50;55.10;;;;;;5095980;28;20066;-69
2023/08/25 09:40:46;;;;;;;6.53;4.50;;;50.40;54.40;;;;;;5086157;28;20051;-70
2023/08/25 09:44:00;;;;;;;9.90;3.90;;;50.90;53.40;;;;;;5094986;28;20055;-70
2023/08/25 09:47:08;;;;;;;8.15;3.85;;;51.00;53.60;;;;;;5097915;28;20410;-70
2023/08/25 09:50:15;;;;;;;7.27;3.93;;;52.50;52.70;;;;;;5086680;28;20046;-69
2023/08/25 09:53:23;;;;;;;4.73;3.57;;;53.90;51.60;;;;;;5091249;28;20046;-68
2023/08/25 09:56:27;;;;;;;9.82;4.15;;;54.90;50.40;;;;;;5091664;28;20050;-71
2023/08/25 09:59:33;;;;;;;6.43;3.83;;;53.40;50.50;;;;;;5091911;28;20062;-70
2023/08/25 10:02:37;;;;;;;7.05;3.67;;;53.90;50.30;;;;;;5097966;28;20118;-69
2023/08/25 10:05:46;;;;;;;5.38;3.92;;;54.10;50.70;;;;;;5085542;28;20039;-70
2023/08/25 10:08:50;;;;;;;7.45;3.42;;;54.70;49.60;;;;;;5089596;28;20047;-70
2023/08/25 10:11:58;;;;;;;7.00;3.90;;;54.70;49.20;;;;;;5095368;28;20043;-67
2023/08/25 10:15:07;;;;;;;5.68;3.60;;;54.60;49.90;;;;;;5088655;28;20383;-71
2023/08/25 10:18:12;;;;;;;5.50;3.78;;;55.40;48.60;;;;;;5079410;28;20043;-70
2023/08/25 10:21:21;;;;;;;6.30;3.70;;;55.20;48.80;;;;;;5097616;28;20055;-71
2023/08/25 10:24:28;;;;;;;6.05;3.70;;;53.50;49.30;;;;;;5106369;28;20027;-69
2023/08/25 10:27:33;;;;;;;6.25;3.90;;;54.20;49.20;;;;;;5086461;28;20043;-70
2023/08/25 10:30:38;;;;;;;7.75;3.90;;;54.90;50.00;;;;;;5088874;28;20379;-67
2023/08/25 10:33:46;;;;;;;8.68;3.75;;;55.50;48.80;;;;;;5085293;28;20035;-70
2023/08/25 10:36:50;;;;;;;10.05;3.50;;;55.70;48.80;;;;;;5091963;28;20493;-69
2023/08/25 10:40:06;;;;;;;7.13;3.63;;;55.40;47.20;;;;;;5086533;28;20493;-69
2023/08/25 10:43:11;;;;;;;7.65;3.38;;;54.50;47.20;;;;;;5087899;28;20047;-67
2023/08/25 10:46:20;;;;;;;4.88;4.13;;;53.80;47.60;;;;;;5091024;28;20055;-68
2023/08/25 10:49:24;;;;;;;6.20;3.55;;;53.70;47.70;;;;;;5090791;28;20043;-69
2023/08/25 10:52:29;;;;;;;8.80;3.75;;;53.50;48.30;;;;;;5089560;28;20039;-68
2023/08/25 10:55:33;;;;;;;5.88;4.25;;;52.00;47.70;;;;;;5090930;28;20414;-68
2023/08/25 10:58:39;;;;;;;5.90;3.78;;;51.20;48.70;;;;;;5090608;28;20055;-69
2023/08/25 11:01:57;;;;;;;6.70;3.35;;;50.50;49.40;;;;;;5078443;28;20047;-69
2023/08/25 11:05:37;;;;;;;9.27;3.78;;;52.50;48.30;;;;;;5090900;28;20059;-69
2023/08/25 11:08:43;;;;;;;7.22;3.90;;;52.70;47.70;;;;;;5012374;28;20176;-70
2023/08/25 11:11:55;;;;;;;7.18;3.20;;;53.70;47.60;;;;;;5090695;28;20039;-68
2023/08/25 11:15:00;;;;;;;6.05;3.55;;;54.80;47.10;;;;;;5090789;28;20043;-69
2023/08/25 13:28:59;;;;;;;6.72;3.72;;;50.70;46.70;;;;;;5112486;28;20035;-69
2023/08/25 13:32:07;;;;;;;4.43;4.03;;;50.20;46.40;;;;;;5112700;28;20051;-69
2023/08/25 13:35:11;;;;;;;5.55;3.88;;;49.90;46.50;;;;;;5088522;28;20034;-68
2023/08/25 13:38:16;;;;;;;5.13;4.28;;;48.90;46.80;;;;;;5112795;28;20043;-69
2023/08/25 13:41:20;;;;;;;6.15;3.90;;;48.70;47.40;;;;;;5112647;28;20054;-70
2023/08/25 13:44:24;;;;;;;6.18;4.40;;;48.80;47.00;;;;;;5099752;28;20524;-68
2023/08/25 13:47:28;;;;;;;5.18;3.97;;;48.80;47.00;;;;;;5088329;28;20039;-68
2023/08/25 13:50:32;;;;;;;7.03;4.45;;;47.50;47.40;;;;;;5112070;28;20348;-68
2023/08/25 13:53:38;;;;;;;8.00;4.50;;;44.40;49.30;;;;;;5112381;28;20043;-68
2023/08/25 13:56:41;;;;;;;7.47;4.88;;;43.50;50.40;;;;;;5100110;28;20042;-68
2023/08/25 13:59:46;;;;;;;5.82;5.05;;;43.90;51.00;;;;;;5100145;28;20047;-68
2023/08/25 14:02:50;;;;;;;8.75;5.50;;;42.70;49.50;;;;;;5112182;28;20059;-67
2023/08/25 14:05:55;;;;;;;8.25;5.95;;;42.70;52.00;;;;;;5112689;28;20054;-67
2023/08/25 14:08:59;;;;;;;6.68;5.00;;;43.50;51.10;;;;;;5112121;28;20058;-69
2023/08/25 14:12:04;;;;;;;9.65;4.97;;;44.20;50.50;;;;;;5112111;28;20039;-70
2023/08/25 14:15:09;;;;;;;7.40;5.05;;;43.60;50.40;;;;;;5099211;28;20058;-69
2023/08/25 14:18:14;;;;;;;10.02;4.93;;;43.60;51.10;;;;;;5112335;28;20042;-69
2023/08/25 14:21:18;;;;;;;8.13;5.43;;;43.60;50.80;;;;;;5111543;28;20068;-69
2023/08/25 14:24:22;;;;;;;8.90;5.05;;;43.90;50.80;;;;;;5112156;28;20043;-69
2023/08/25 14:27:27;;;;;;;9.75;5.00;;;43.90;51.10;;;;;;5111443;28;20046;-69
2023/08/25 14:30:33;;;;;;;6.07;4.72;;;43.60;50.50;;;;;;5111701;28;20489;-69
2023/08/25 14:33:37;;;;;;;6.05;5.30;;;42.40;52.00;;;;;;5111487;28;20043;-69
2023/08/25 14:36:41;;;;;;;8.82;5.93;;;41.70;52.40;;;;;;5111678;28;20031;-69
2023/08/25 14:39:45;;;;;;;7.05;4.80;;;42.10;52.40;;;;;;5111894;28;20039;-69
2023/08/25 14:42:51;;;;;;;6.90;5.68;;;42.50;52.00;;;;;;5111056;28;20049;-69
2023/08/25 14:45:55;;;;;;;7.70;5.70;;;41.90;52.10;;;;;;5111760;28;20050;-68
2023/08/25 14:48:59;;;;;;;7.05;5.55;;;40.20;53.90;;;;;;5111961;28;20509;-68
2023/08/25 14:52:04;;;;;;;6.65;5.32;;;40.60;53.50;;;;;;5111305;28;20477;-69
2023/08/25 14:55:08;;;;;;;15.27;5.90;;;41.00;53.80;;;;;;5111464;28;20051;-69
2023/08/25 14:58:12;;;;;;;7.90;5.20;;;41.20;53.80;;;;;;5111705;28;20046;-70
2023/08/25 15:01:18;;;;;;;9.65;5.32;;;41.40;53.80;;;;;;5114801;28;20046;-69
2023/08/25 15:04:22;;;;;;;9.25;6.20;;;41.40;53.70;;;;;;5111766;28;20043;-69
2023/08/25 15:07:26;;;;;;;6.85;5.60;;;41.30;53.40;;;;;;5111178;28;20039;-68
2023/08/25 15:10:30;;;;;;;6.60;5.95;;;41.30;53.40;;;;;;5110995;28;20058;-68
2023/08/25 15:13:34;;;;;;;14.48;6.40;;;40.30;53.50;;;;;;5110753;28;20039;-69
2023/08/25 15:16:38;;;;;;;9.18;6.18;;;39.60;53.90;;;;;;5111315;28;20046;-69
2023/08/25 15:19:43;;;;;;;9.95;5.65;;;40.00;53.60;;;;;;5111061;28;20046;-69
2023/08/25 15:22:48;;;;;;;9.18;6.07;;;39.20;54.50;;;;;;5110738;28;20046;-68
2023/08/25 15:25:54;;;;;;;9.70;5.88;;;38.90;54.60;;;;;;5098763;28;20050;-69
2023/08/25 15:28:58;;;;;;;9.93;5.78;;;39.40;55.00;;;;;;5110687;28;20059;-69
2023/08/25 15:32:03;;;;;;;10.38;5.65;;;38.90;54.20;;;;;;5110463;28;20394;-69
2023/08/25 15:35:07;;;;;;;10.38;6.43;;;39.10;54.50;;;;;;5109005;28;20042;-69
2023/08/25 15:38:12;;;;;;;9.85;6.35;;;39.10;55.00;;;;;;5096720;28;20044;-69
2023/08/25 15:41:17;;;;;;;10.75;6.38;;;38.60;55.00;;;;;;5105966;28;20395;-68
2023/08/25 15:44:21;;;;;;;27.23;7.13;;;38.40;55.00;;;;;;5102906;28;20050;-68
2023/08/25 15:47:25;;;;;;;10.18;6.13;;;38.40;56.00;;;;;;5115309;28;20046;-68
2023/08/25 15:50:30;;;;;;;13.75;6.82;;;37.80;55.80;;;;;;5114717;28;20047;-69
2023/08/25 15:53:35;;;;;;;9.90;6.45;;;38.00;56.30;;;;;;5105383;28;20039;-70
2023/08/25 15:56:39;;;;;;;12.63;6.40;;;38.10;56.90;;;;;;5104244;28;20031;-69
2023/08/25 15:59:45;;;;;;;13.50;7.20;;;38.50;55.90;;;;;;5074042;28;20044;-69
2023/08/25 16:02:49;;;;;;;15.88;6.43;;;38.70;56.50;;;;;;5073430;28;20470;-69
2023/08/25 16:06:04;;;;;;;12.32;6.47;;;38.80;56.80;;;;;;5062567;28;20620;-73
2023/08/25 16:09:08;;;;;;;8.30;6.13;;;38.90;57.50;;;;;;5063616;28;20044;-73
2023/08/25 16:12:12;;;;;;;17.83;6.80;;;38.90;57.60;;;;;;5081804;28;20067;-73
2023/08/25 16:15:48;;;;;;;12.02;6.63;;;38.80;58.20;;;;;;5097003;28;20051;-72
2023/08/25 16:18:52;;;;;;;19.10;6.78;;;38.50;58.30;;;;;;5096631;28;20051;-72
2023/08/25 16:21:56;;;;;;;16.92;6.95;;;38.20;59.00;;;;;;5096294;28;20039;-72
2023/08/25 16:25:00;;;;;;;14.43;6.72;;;38.00;59.10;;;;;;5095509;28;20046;-71
2023/08/25 16:28:04;;;;;;;10.73;6.55;;;37.80;59.30;;;;;;5097800;28;20400;-72
2023/08/25 16:31:10;;;;;;;26.15;7.45;;;37.60;59.70;;;;;;5095053;28;20047;-73
2023/08/25 16:34:14;;;;;;;14.10;6.85;;;37.40;59.90;;;;;;5096168;28;20039;-75
2023/08/25 16:37:18;;;;;;;9.98;6.32;;;37.20;60.10;;;;;;5095989;28;20410;-73
2023/08/25 16:40:26;;;;;;;8.45;6.20;;;37.10;60.30;;;;;;5095309;28;20043;-73
2023/08/25 16:43:31;;;;;;;9.80;6.55;;;36.80;60.30;;;;;;5096137;28;20051;-74
2023/08/25 16:46:35;;;;;;;12.13;6.43;;;36.60;60.60;;;;;;5096202;28;20043;-73
2023/08/25 16:49:39;;;;;;;8.68;6.00;;;36.50;60.50;;;;;;5094857;28;20047;-73
2023/08/25 16:52:42;;;;;;;11.63;6.85;;;36.40;60.50;;;;;;5096103;28;20047;-73
2023/08/25 16:55:47;;;;;;;10.63;6.45;;;36.20;60.90;;;;;;5094845;28;20050;-75
2023/08/25 16:58:52;;;;;;;11.50;5.75;;;35.90;61.30;;;;;;5094186;28;20047;-72
2023/08/25 17:01:57;;;;;;;13.10;6.15;;;35.80;61.40;;;;;;5093654;28;20051;-72
2023/08/25 17:05:02;;;;;;;13.80;6.75;;;35.70;61.70;;;;;;5093700;28;20039;-70
2023/08/25 17:08:08;;;;;;;13.93;6.15;;;35.50;61.50;;;;;;5093869;28;20379;-71
2023/08/25 17:11:13;;;;;;;12.00;7.20;;;35.40;61.90;;;;;;5093571;28;20047;-71
2023/08/25 17:14:18;;;;;;;12.20;7.13;;;35.20;61.90;;;;;;5093276;28;20055;-72
2023/08/25 17:17:23;;;;;;;9.48;6.00;;;35.10;62.30;;;;;;5080890;28;20489;-71
2023/08/25 17:20:27;;;;;;;12.55;5.95;;;35.00;62.40;;;;;;5080366;28;20054;-72
2023/08/25 17:23:32;;;;;;;13.63;6.97;;;34.80;62.60;;;;;;5092310;28;20046;-73
2023/08/25 17:26:36;;;;;;;25.45;6.80;;;34.70;62.60;;;;;;5092977;28;20042;-72
2023/08/25 17:29:40;;;;;;;10.20;6.30;;;34.60;62.90;;;;;;5096191;28;20063;-74
2023/08/25 17:32:45;;;;;;;16.65;6.63;;;34.40;62.80;;;;;;5093106;28;20039;-72
2023/08/25 17:35:50;;;;;;;10.75;5.85;;;34.30;62.90;;;;;;5089691;28;20823;-73
2023/08/25 17:38:54;;;;;;;26.98;6.57;;;34.20;63.10;;;;;;5096035;28;20043;-73
2023/08/25 17:41:58;;;;;;;22.50;7.15;;;34.10;62.80;;;;;;5095393;28;20050;-72
2023/08/25 17:45:03;;;;;;;10.93;6.45;;;34.00;63.20;;;;;;5092673;28;20106;-73
2023/08/25 17:48:07;;;;;;;11.20;5.70;;;33.80;62.80;;;;;;5092409;28;20489;-73
2023/08/25 17:51:12;;;;;;;24.60;7.57;;;33.70;62.70;;;;;;5096831;28;20043;-73
2023/08/25 17:54:18;;;;;;;16.77;6.45;;;33.60;63.40;;;;;;5084424;28;20639;-73
2023/08/25 17:57:23;;;;;;;15.10;6.30;;;33.50;63.70;;;;;;5092165;28;20039;-71
2023/08/25 18:00:27;;;;;;;12.07;6.22;;;33.30;63.60;;;;;;5095260;28;20051;-72
2023/08/25 18:03:38;;;;;;;7.85;5.95;;;33.20;63.50;;;;;;5084710;28;20043;-71
2023/08/25 18:06:42;;;;;;;12.18;5.57;;;33.00;63.00;;;;;;5086443;28;20389;-70
2023/08/25 18:09:45;;;;;;;13.98;5.88;;;32.80;62.40;;;;;;5086695;28;20046;-70
2023/08/25 18:12:49;;;;;;;11.00;5.43;;;32.80;63.00;;;;;;5086998;28;20394;-71